sensor_id;sensor_type;location;lat;lon;timestamp;pressure;altitude;pressure_sealevel;temperature;humidity
13420;BME280;6781;58.440;15.470;2023-10-09T00:00:33;102086.19;;;3.03;100.00
13420;BME280;6781;58.440;15.470;2023-10-09T00:03:16;102083.59;;;3.04;100.00
13420;BME280;6781;58.440;15.470;2023-10-09T00:05:43;102085.19;;;3.08;100.00
13420;BME280;6781;58.440;15.470;2023-10-09T00:08:12;102080.06;;;3.08;100.00
13420;BME280;6781;58.440;15.470;2023-10-09T00:10:42;102077.50;;;3.08;100.00
13420;BME280;6781;58.440;15.470;2023-10-09T00:13:14;102070.69;;;3.07;100.00
13420;BME280;6781;58.440;15.470;2023-10-09T00:15:42;102068.13;;;3.07;100.00
13420;BME280;6781;58.440;15.470;2023-10-09T00:18:16;102064.84;;;3.02;100.00
13420;BME280;6781;58.440;15.470;2023-10-09T00:20:47;102075.91;;;3.04;100.00
13420;BME280;6781;58.440;15.470;2023-10-09T00:23:20;102060.56;;;3.03;100.00
13420;BME280;6781;58.440;15.470;2023-10-09T00:25:50;102054.50;;;3.05;100.00
13420;BME280;6781;58.440;15.470;2023-10-09T00:28:34;102064.84;;;3.02;100.00
13420;BME280;6781;58.440;15.470;2023-10-09T00:31:04;102060.69;;;2.97;100.00
13420;BME280;6781;58.440;15.470;2023-10-09T00:33:33;102078.53;;;3.01;100.00
13420;BME280;6781;58.440;15.470;2023-10-09T00:36:02;102069.97;;;3.02;100.00
13420;BME280;6781;58.440;15.470;2023-10-09T00:38:35;102059.00;;;2.96;100.00
13420;BME280;6781;58.440;15.470;2023-10-09T00:41:03;102059.00;;;2.96;100.00
13420;BME280;6781;58.440;15.470;2023-10-09T00:43:35;102073.56;;;2.93;100.00
13420;BME280;6781;58.440;15.470;2023-10-09T00:46:05;102080.34;;;2.96;100.00
13420;BME280;6781;58.440;15.470;2023-10-09T00:48:37;102081.19;;;2.97;100.00
13420;BME280;6781;58.440;15.470;2023-10-09T00:51:06;102075.22;;;2.96;100.00
13420;BME280;6781;58.440;15.470;2023-10-09T00:53:42;102063.28;;;2.95;100.00
13420;BME280;6781;58.440;15.470;2023-10-09T00:56:09;102058.09;;;2.98;100.00
13420;BME280;6781;58.440;15.470;2023-10-09T00:58:44;102048.81;;;2.94;100.00
13420;BME280;6781;58.440;15.470;2023-10-09T01:01:13;102049.69;;;2.93;100.00
13420;BME280;6781;58.440;15.470;2023-10-09T01:03:41;102047.97;;;2.93;100.00
13420;BME280;6781;58.440;15.470;2023-10-09T01:06:10;102044.69;;;2.87;100.00
13420;BME280;6781;58.440;15.470;2023-10-09T01:08:46;102052.31;;;2.90;100.00
13420;BME280;6781;58.440;15.470;2023-10-09T01:11:21;102043.00;;;2.86;100.00
13420;BME280;6781;58.440;15.470;2023-10-09T01:13:55;102060.00;;;2.90;100.00
13420;BME280;6781;58.440;15.470;2023-10-09T01:16:38;102048.06;;;2.89;100.00
13420;BME280;6781;58.440;15.470;2023-10-09T01:19:06;102048.13;;;2.86;100.00
13420;BME280;6781;58.440;15.470;2023-10-09T01:21:38;102042.97;;;2.87;100.00
13420;BME280;6781;58.440;15.470;2023-10-09T01:24:07;102028.44;;;2.88;100.00
13420;BME280;6781;58.440;15.470;2023-10-09T01:26:35;102017.47;;;2.83;100.00
13420;BME280;6781;58.440;15.470;2023-10-09T01:29:10;102026.09;;;2.79;100.00
13420;BME280;6781;58.440;15.470;2023-10-09T01:31:39;102023.56;;;2.77;100.00
13420;BME280;6781;58.440;15.470;2023-10-09T01:34:09;102014.25;;;2.75;100.00
13420;BME280;6781;58.440;15.470;2023-10-09T01:36:37;101997.16;;;2.75;100.00
13420;BME280;6781;58.440;15.470;2023-10-09T01:39:05;101994.66;;;2.72;100.00
13420;BME280;6781;58.440;15.470;2023-10-09T01:41:48;101981.03;;;2.72;100.00
13420;BME280;6781;58.440;15.470;2023-10-09T01:44:17;101983.66;;;2.69;100.00
13420;BME280;6781;58.440;15.470;2023-10-09T01:46:44;101969.25;;;2.65;100.00
13420;BME280;6781;58.440;15.470;2023-10-09T01:49:11;101965.81;;;2.66;100.00
13420;BME280;6781;58.440;15.470;2023-10-09T01:51:43;101958.22;;;2.61;100.00
13420;BME280;6781;58.440;15.470;2023-10-09T01:54:10;101958.19;;;2.63;100.00
13420;BME280;6781;58.440;15.470;2023-10-09T01:56:42;101956.59;;;2.58;100.00
13420;BME280;6781;58.440;15.470;2023-10-09T01:59:13;101958.19;;;2.63;100.00
13420;BME280;6781;58.440;15.470;2023-10-09T02:01:41;101956.50;;;2.61;100.00
13420;BME280;6781;58.440;15.470;2023-10-09T02:04:13;101949.63;;;2.64;100.00
13420;BME280;6781;58.440;15.470;2023-10-09T02:06:45;101945.34;;;2.64;100.00
13420;BME280;6781;58.440;15.470;2023-10-09T02:09:17;101934.41;;;2.57;100.00
13420;BME280;6781;58.440;15.470;2023-10-09T02:11:48;101934.34;;;2.60;100.00
13420;BME280;6781;58.440;15.470;2023-10-09T02:14:17;101927.59;;;2.56;100.00
13420;BME280;6781;58.440;15.470;2023-10-09T02:16:46;101931.03;;;2.55;100.00
13420;BME280;6781;58.440;15.470;2023-10-09T02:19:28;101932.72;;;2.56;100.00
13420;BME280;6781;58.440;15.470;2023-10-09T02:22:00;101938.69;;;2.57;100.00
13420;BME280;6781;58.440;15.470;2023-10-09T02:24:37;101929.38;;;2.54;100.00
13420;BME280;6781;58.440;15.470;2023-10-09T02:27:24;101923.38;;;2.55;100.00
13420;BME280;6781;58.440;15.470;2023-10-09T02:30:10;101934.47;;;2.54;100.00
13420;BME280;6781;58.440;15.470;2023-10-09T02:32:45;101934.56;;;2.51;100.00
13420;BME280;6781;58.440;15.470;2023-10-09T02:35:17;101938.00;;;2.50;100.00
13420;BME280;6781;58.440;15.470;2023-10-09T02:37:53;101940.59;;;2.49;100.00
13420;BME280;6781;58.440;15.470;2023-10-09T02:40:20;101946.47;;;2.52;100.00
13420;BME280;6781;58.440;15.470;2023-10-09T02:42:51;101948.16;;;2.53;100.00
13420;BME280;6781;58.440;15.470;2023-10-09T02:45:20;101927.69;;;2.53;100.00
13420;BME280;6781;58.440;15.470;2023-10-09T02:47:54;101915.69;;;2.55;100.00
13420;BME280;6781;58.440;15.470;2023-10-09T02:50:21;101912.41;;;2.50;100.00
13420;BME280;6781;58.440;15.470;2023-10-09T02:52:48;101903.97;;;2.45;100.00
13420;BME280;6781;58.440;15.470;2023-10-09T02:55:19;101905.75;;;2.43;100.00
13420;BME280;6781;58.440;15.470;2023-10-09T02:57:52;101900.47;;;2.49;100.00
13420;BME280;6781;58.440;15.470;2023-10-09T03:00:31;101892.13;;;2.41;100.00
13420;BME280;6781;58.440;15.470;2023-10-09T03:05:37;101898.16;;;2.39;100.00
13420;BME280;6781;58.440;15.470;2023-10-09T03:08:07;101914.38;;;2.39;100.00
13420;BME280;6781;58.440;15.470;2023-10-09T03:10:37;101919.41;;;2.42;100.00
13420;BME280;6781;58.440;15.470;2023-10-09T03:13:04;101919.41;;;2.42;100.00
13420;BME280;6781;58.440;15.470;2023-10-09T03:15:33;101903.97;;;2.45;100.00
13420;BME280;6781;58.440;15.470;2023-10-09T03:18:01;101902.28;;;2.44;100.00
13420;BME280;6781;58.440;15.470;2023-10-09T03:20:29;101888.03;;;2.34;100.00
13420;BME280;6781;58.440;15.470;2023-10-09T03:22:56;101887.16;;;2.35;100.00
13420;BME280;6781;58.440;15.470;2023-10-09T03:25:26;101888.78;;;2.39;100.00
13420;BME280;6781;58.440;15.470;2023-10-09T03:27:53;101871.94;;;2.29;100.00
13420;BME280;6781;58.440;15.470;2023-10-09T03:30:21;101878.81;;;2.27;100.00
13420;BME280;6781;58.440;15.470;2023-10-09T03:32:50;101889.00;;;2.30;100.00
13420;BME280;6781;58.440;15.470;2023-10-09T03:35:17;101885.69;;;2.25;100.00
13420;BME280;6781;58.440;15.470;2023-10-09T03:37:50;101886.47;;;2.28;100.00
13420;BME280;6781;58.440;15.470;2023-10-09T03:40:16;101883.09;;;2.26;100.00
13420;BME280;6781;58.440;15.470;2023-10-09T03:42:44;101878.06;;;2.23;100.00
13420;BME280;6781;58.440;15.470;2023-10-09T03:45:10;101867.81;;;2.23;100.00
13420;BME280;6781;58.440;15.470;2023-10-09T03:47:52;101859.25;;;2.24;100.00
13420;BME280;6781;58.440;15.470;2023-10-09T03:50:23;101844.19;;;2.12;100.00
13420;BME280;6781;58.440;15.470;2023-10-09T03:53:01;101844.31;;;2.08;100.00
13420;BME280;6781;58.440;15.470;2023-10-09T03:55:29;101836.78;;;2.02;100.00
13420;BME280;6781;58.440;15.470;2023-10-09T03:57:57;101857.25;;;2.02;100.00
13420;BME280;6781;58.440;15.470;2023-10-09T04:00:27;101852.13;;;2.02;100.00
13420;BME280;6781;58.440;15.470;2023-10-09T04:02:55;101852.78;;;2.10;100.00
13420;BME280;6781;58.440;15.470;2023-10-09T04:05:23;101849.56;;;2.02;100.00
13420;BME280;6781;58.440;15.470;2023-10-09T04:07:50;101849.66;;;1.97;100.00
13420;BME280;6781;58.440;15.470;2023-10-09T04:10:18;101844.50;;;1.99;100.00
13420;BME280;6781;58.440;15.470;2023-10-09T04:12:59;101842.72;;;2.02;100.00
13420;BME280;6781;58.440;15.470;2023-10-09T04:15:28;101839.41;;;1.99;100.00
13420;BME280;6781;58.440;15.470;2023-10-09T04:17:57;101832.56;;;1.99;100.00
13420;BME280;6781;58.440;15.470;2023-10-09T04:20:26;101836.84;;;1.99;100.00
13420;BME280;6781;58.440;15.470;2023-10-09T04:23:10;101848.69;;;2.03;100.00
13420;BME280;6781;58.440;15.470;2023-10-09T04:25:41;101850.34;;;2.05;100.00
13420;BME280;6781;58.440;15.470;2023-10-09T04:28:07;101840.03;;;2.08;100.00
13420;BME280;6781;58.440;15.470;2023-10-09T04:30:37;101841.75;;;2.08;100.00
13420;BME280;6781;58.440;15.470;2023-10-09T04:33:09;101842.69;;;2.04;100.00
13420;BME280;6781;58.440;15.470;2023-10-09T04:35:53;101846.94;;;2.05;100.00
13420;BME280;6781;58.440;15.470;2023-10-09T04:38:34;101860.53;;;2.07;100.00
13420;BME280;6781;58.440;15.470;2023-10-09T04:41:04;101873.28;;;2.08;100.00
13420;BME280;6781;58.440;15.470;2023-10-09T04:43:33;101887.72;;;2.11;100.00
13420;BME280;6781;58.440;15.470;2023-10-09T04:45:59;101882.47;;;2.17;100.00
13420;BME280;6781;58.440;15.470;2023-10-09T04:48:34;101885.69;;;2.25;100.00
13420;BME280;6781;58.440;15.470;2023-10-09T04:51:03;101879.69;;;2.26;100.00
13420;BME280;6781;58.440;15.470;2023-10-09T04:54:00;101887.38;;;2.26;100.00
13420;BME280;6781;58.440;15.470;2023-10-09T04:56:38;101890.81;;;2.25;100.00
13420;BME280;6781;58.440;15.470;2023-10-09T04:59:17;101901.84;;;2.27;100.00
13420;BME280;6781;58.440;15.470;2023-10-09T05:01:43;101905.88;;;2.37;100.00
13420;BME280;6781;58.440;15.470;2023-10-09T05:04:24;101905.19;;;2.31;100.00
13420;BME280;6781;58.440;15.470;2023-10-09T05:07:04;101893.25;;;2.29;100.00
13420;BME280;6781;58.440;15.470;2023-10-09T05:09:48;101890.00;;;2.23;100.00
13420;BME280;6781;58.440;15.470;2023-10-09T05:12:40;101907.91;;;2.23;100.00
13420;BME280;6781;58.440;15.470;2023-10-09T05:15:12;101907.03;;;2.24;100.00
13420;BME280;6781;58.440;15.470;2023-10-09T05:17:38;101906.97;;;2.27;100.00
13420;BME280;6781;58.440;15.470;2023-10-09T05:20:12;101900.91;;;2.31;100.00
13420;BME280;6781;58.440;15.470;2023-10-09T05:23:02;101904.41;;;2.27;100.00
13420;BME280;6781;58.440;15.470;2023-10-09T05:25:48;101891.50;;;2.32;100.00
13420;BME280;6781;58.440;15.470;2023-10-09T05:28:24;101887.22;;;2.32;100.00
13420;BME280;6781;58.440;15.470;2023-10-09T05:31:13;101878.69;;;2.33;100.00
13420;BME280;6781;58.440;15.470;2023-10-09T05:34:00;101867.66;;;2.29;100.00
13420;BME280;6781;58.440;15.470;2023-10-09T05:36:28;101858.34;;;2.27;100.00
13420;BME280;6781;58.440;15.470;2023-10-09T05:39:00;101849.00;;;2.26;100.00
13420;BME280;6781;58.440;15.470;2023-10-09T05:41:41;101851.53;;;2.26;100.00
13420;BME280;6781;58.440;15.470;2023-10-09T05:44:28;101820.00;;;2.25;100.00
13420;BME280;6781;58.440;15.470;2023-10-09T05:47:17;101807.31;;;2.21;100.00
13420;BME280;6781;58.440;15.470;2023-10-09T05:50:04;101816.72;;;2.20;100.00
13420;BME280;6781;58.440;15.470;2023-10-09T05:52:52;101818.44;;;2.20;100.00
13420;BME280;6781;58.440;15.470;2023-10-09T05:55:35;101809.94;;;2.18;100.00
13420;BME280;6781;58.440;15.470;2023-10-09T05:58:19;101804.88;;;2.16;100.00
13420;BME280;6781;58.440;15.470;2023-10-09T06:01:03;101800.66;;;2.14;100.00
13420;BME280;6781;58.440;15.470;2023-10-09T06:03:46;101797.22;;;2.15;100.00
13420;BME280;6781;58.440;15.470;2023-10-09T06:06:19;101815.09;;;2.16;100.00
13420;BME280;6781;58.440;15.470;2023-10-09T06:09:01;101826.31;;;2.11;100.00
13420;BME280;6781;58.440;15.470;2023-10-09T06:11:57;101824.53;;;2.14;100.00
13420;BME280;6781;58.440;15.470;2023-10-09T06:14:38;101804.09;;;2.13;100.00
13420;BME280;6781;58.440;15.470;2023-10-09T06:17:18;101791.41;;;2.08;100.00
13420;BME280;6781;58.440;15.470;2023-10-09T06:19:49;101795.69;;;2.08;100.00
13420;BME280;6781;58.440;15.470;2023-10-09T06:22:23;101806.63;;;2.14;100.00
13420;BME280;6781;58.440;15.470;2023-10-09T06:25:09;101793.06;;;2.11;100.00
13420;BME280;6781;58.440;15.470;2023-10-09T06:27:37;101800.75;;;2.11;100.00
13420;BME280;6781;58.440;15.470;2023-10-09T06:30:23;101807.66;;;2.07;100.00
13420;BME280;6781;58.440;15.470;2023-10-09T06:32:49;101819.50;;;2.11;100.00
13420;BME280;6781;58.440;15.470;2023-10-09T06:35:23;101812.56;;;2.15;100.00
13420;BME280;6781;58.440;15.470;2023-10-09T06:37:55;101803.94;;;2.19;100.00
13420;BME280;6781;58.440;15.470;2023-10-09T06:40:40;101803.94;;;2.19;100.00
13420;BME280;6781;58.440;15.470;2023-10-09T06:43:24;101807.31;;;2.21;100.00
13420;BME280;6781;58.440;15.470;2023-10-09T06:45:54;101793.63;;;2.22;100.00
13420;BME280;6781;58.440;15.470;2023-10-09T06:48:23;101790.31;;;2.18;100.00
13420;BME280;6781;58.440;15.470;2023-10-09T06:51:10;101795.31;;;2.23;100.00
13420;BME280;6781;58.440;15.470;2023-10-09T06:53:41;101790.28;;;2.20;100.00
13420;BME280;6781;58.440;15.470;2023-10-09T06:56:30;101795.31;;;2.23;100.00
13420;BME280;6781;58.440;15.470;2023-10-09T06:59:11;101784.13;;;2.27;100.00
13420;BME280;6781;58.440;15.470;2023-10-09T07:01:42;101772.19;;;2.27;100.00
13420;BME280;6781;58.440;15.470;2023-10-09T07:04:09;101777.25;;;2.29;100.00
13420;BME280;6781;58.440;15.470;2023-10-09T07:06:45;101778.06;;;2.31;100.00
13420;BME280;6781;58.440;15.470;2023-10-09T07:09:14;101779.81;;;2.29;100.00
13420;BME280;6781;58.440;15.470;2023-10-09T07:11:47;101783.19;;;2.31;100.00
13420;BME280;6781;58.440;15.470;2023-10-09T07:14:24;101796.78;;;2.33;100.00
13420;BME280;6781;58.440;15.470;2023-10-09T07:17:14;101799.25;;;2.36;100.00
13420;BME280;6781;58.440;15.470;2023-10-09T07:19:48;101805.09;;;2.41;100.00
13420;BME280;6781;58.440;15.470;2023-10-09T07:22:37;101796.63;;;2.39;100.00
13420;BME280;6781;58.440;15.470;2023-10-09T07:25:18;101808.53;;;2.40;100.00
13420;BME280;6781;58.440;15.470;2023-10-09T07:27:54;101822.97;;;2.43;100.00
13420;BME280;6781;58.440;15.470;2023-10-09T07:30:25;101841.63;;;2.48;100.00
13420;BME280;6781;58.440;15.470;2023-10-09T07:33:09;101876.63;;;2.47;100.00
13420;BME280;6781;58.440;15.470;2023-10-09T07:35:43;101893.47;;;2.56;100.00
13420;BME280;6781;58.440;15.470;2023-10-09T07:38:13;101913.88;;;2.59;100.00
13420;BME280;6781;58.440;15.470;2023-10-09T07:40:44;101939.28;;;2.68;100.00
13420;BME280;6781;58.440;15.470;2023-10-09T07:43:22;101959.59;;;2.76;100.00
13420;BME280;6781;58.440;15.470;2023-10-09T07:45:52;101968.06;;;2.78;100.00
13420;BME280;6781;58.440;15.470;2023-10-09T07:48:35;101982.41;;;2.85;100.00
13420;BME280;6781;58.440;15.470;2023-10-09T07:51:13;102013.66;;;2.99;100.00
13420;BME280;6781;58.440;15.470;2023-10-09T07:53:40;102025.53;;;3.03;100.00
13420;BME280;6781;58.440;15.470;2023-10-09T07:56:09;102032.25;;;3.07;100.00
13420;BME280;6781;58.440;15.470;2023-10-09T07:58:40;102055.97;;;3.15;100.00
13420;BME280;6781;58.440;15.470;2023-10-09T08:01:14;102049.94;;;3.18;100.00
13420;BME280;6781;58.440;15.470;2023-10-09T08:03:59;102082.19;;;3.26;100.00
13420;BME280;6781;58.440;15.470;2023-10-09T08:06:36;102091.50;;;3.31;100.00
13420;BME280;6781;58.440;15.470;2023-10-09T08:09:07;102104.97;;;3.39;100.00
13420;BME280;6781;58.440;15.470;2023-10-09T08:11:51;102109.75;;;3.51;100.00
13420;BME280;6781;58.440;15.470;2023-10-09T08:14:40;102128.97;;;3.69;100.00
13420;BME280;6781;58.440;15.470;2023-10-09T08:17:13;102129.75;;;3.72;100.00
13420;BME280;6781;58.440;15.470;2023-10-09T08:19:46;102126.28;;;3.73;100.00
13420;BME280;6781;58.440;15.470;2023-10-09T08:22:22;102135.38;;;3.86;100.00
13420;BME280;6781;58.440;15.470;2023-10-09T08:25:02;102134.34;;;3.92;100.00
13420;BME280;6781;58.440;15.470;2023-10-09T08:27:30;102144.50;;;3.97;100.00
13420;BME280;6781;58.440;15.470;2023-10-09T08:30:14;102154.03;;;4.24;100.00
13420;BME280;6781;58.440;15.470;2023-10-09T08:33:06;102163.97;;;4.36;100.00
13420;BME280;6781;58.440;15.470;2023-10-09T08:35:49;102169.84;;;4.41;100.00
13420;BME280;6781;58.440;15.470;2023-10-09T08:38:16;102172.16;;;4.50;100.00
13420;BME280;6781;58.440;15.470;2023-10-09T08:40:48;102187.13;;;4.66;100.00
13420;BME280;6781;58.440;15.470;2023-10-09T08:43:16;102193.78;;;4.73;100.00
13420;BME280;6781;58.440;15.470;2023-10-09T08:45:46;102194.44;;;4.79;100.00
13420;BME280;6781;58.440;15.470;2023-10-09T08:48:13;102187.44;;;4.84;100.00
13420;BME280;6781;58.440;15.470;2023-10-09T08:50:43;102178.44;;;4.99;100.00
13420;BME280;6781;58.440;15.470;2023-10-09T08:53:10;102157.78;;;5.02;100.00
13420;BME280;6781;58.440;15.470;2023-10-09T08:55:37;102167.59;;;5.17;100.00
13420;BME280;6781;58.440;15.470;2023-10-09T08:58:04;102172.56;;;5.22;100.00
13420;BME280;6781;58.440;15.470;2023-10-09T09:00:35;102148.28;;;5.31;100.00
13420;BME280;6781;58.440;15.470;2023-10-09T09:03:10;102149.72;;;5.39;100.00
13420;BME280;6781;58.440;15.470;2023-10-09T09:05:37;102145.22;;;5.46;100.00
13420;BME280;6781;58.440;15.470;2023-10-09T09:08:04;102152.69;;;5.53;100.00
13420;BME280;6781;58.440;15.470;2023-10-09T09:10:50;102147.00;;;5.70;100.00
13420;BME280;6781;58.440;15.470;2023-10-09T09:13:18;102143.22;;;5.80;100.00
13420;BME280;6781;58.440;15.470;2023-10-09T09:15:46;102140.09;;;5.97;100.00
13420;BME280;6781;58.440;15.470;2023-10-09T09:18:15;102135.53;;;6.05;100.00
13420;BME280;6781;58.440;15.470;2023-10-09T09:20:43;102119.13;;;6.08;100.00
13420;BME280;6781;58.440;15.470;2023-10-09T09:23:12;102096.50;;;6.16;100.00
13420;BME280;6781;58.440;15.470;2023-10-09T09:25:39;102092.59;;;6.29;100.00
13420;BME280;6781;58.440;15.470;2023-10-09T09:28:09;102071.19;;;6.27;100.00
13420;BME280;6781;58.440;15.470;2023-10-09T09:30:38;102050.41;;;6.32;100.00
13420;BME280;6781;58.440;15.470;2023-10-09T09:35:59;102032.59;;;6.49;100.00
13420;BME280;6781;58.440;15.470;2023-10-09T09:38:29;102040.97;;;6.76;100.00
13420;BME280;6781;58.440;15.470;2023-10-09T09:41:07;101995.53;;;6.73;100.00
13420;BME280;6781;58.440;15.470;2023-10-09T09:43:34;101970.47;;;6.77;100.00
13420;BME280;6781;58.440;15.470;2023-10-09T09:46:01;101937.00;;;6.75;100.00
13420;BME280;6781;58.440;15.470;2023-10-09T09:48:33;101903.56;;;6.74;100.00
13420;BME280;6781;58.440;15.470;2023-10-09T09:51:06;101889.97;;;6.91;100.00
13420;BME280;6781;58.440;15.470;2023-10-09T09:53:33;101875.31;;;6.91;100.00
13420;BME280;6781;58.440;15.470;2023-10-09T09:56:00;101862.06;;;6.99;100.00
13420;BME280;6781;58.440;15.470;2023-10-09T09:58:29;101827.03;;;7.13;100.00
13420;BME280;6781;58.440;15.470;2023-10-09T10:01:08;101787.50;;;7.32;100.00
13420;BME280;6781;58.440;15.470;2023-10-09T10:03:41;101762.78;;;7.45;100.00
13420;BME280;6781;58.440;15.470;2023-10-09T10:06:11;101726.41;;;7.32;100.00
13420;BME280;6781;58.440;15.470;2023-10-09T10:08:39;101686.75;;;7.52;100.00
13420;BME280;6781;58.440;15.470;2023-10-09T10:11:07;101641.41;;;7.46;100.00
13420;BME280;6781;58.440;15.470;2023-10-09T10:13:55;101614.31;;;7.55;100.00
13420;BME280;6781;58.440;15.470;2023-10-09T10:16:24;101570.75;;;7.49;100.00
13420;BME280;6781;58.440;15.470;2023-10-09T10:19:00;101545.22;;;7.60;100.00
13420;BME280;6781;58.440;15.470;2023-10-09T10:21:33;101503.16;;;7.58;100.00
13420;BME280;6781;58.440;15.470;2023-10-09T10:29:35;101386.50;;;7.67;100.00
13420;BME280;6781;58.440;15.470;2023-10-09T10:32:03;101341.38;;;7.74;100.00
13420;BME280;6781;58.440;15.470;2023-10-09T10:37:21;101269.25;;;7.71;100.00
13420;BME280;6781;58.440;15.470;2023-10-09T10:39:54;101231.41;;;7.86;100.00
13420;BME280;6781;58.440;15.470;2023-10-09T10:42:24;101196.84;;;7.89;100.00
13420;BME280;6781;58.440;15.470;2023-10-09T10:45:00;101164.00;;;7.91;100.00
13420;BME280;6781;58.440;15.470;2023-10-09T10:47:28;101154.22;;;7.96;100.00
13420;BME280;6781;58.440;15.470;2023-10-09T10:50:00;101114.75;;;8.08;100.00
13420;BME280;6781;58.440;15.470;2023-10-09T10:52:48;101081.72;;;8.27;100.00
13420;BME280;6781;58.440;15.470;2023-10-09T10:55:22;101064.56;;;8.40;100.00
13420;BME280;6781;58.440;15.470;2023-10-09T10:58:16;101057.91;;;8.51;100.00
13420;BME280;6781;58.440;15.470;2023-10-09T11:00:51;101051.34;;;8.72;100.00
13420;BME280;6781;58.440;15.470;2023-10-09T11:03:37;101028.75;;;8.88;100.00
13420;BME280;6781;58.440;15.470;2023-10-09T11:06:24;100995.94;;;8.89;100.00
13420;BME280;6781;58.440;15.470;2023-10-09T11:09:02;100963.69;;;8.94;100.00
13420;BME280;6781;58.440;15.470;2023-10-09T11:11:43;100924.66;;;8.97;100.00
13420;BME280;6781;58.440;15.470;2023-10-09T11:14:12;100909.47;;;9.05;100.00
13420;BME280;6781;58.440;15.470;2023-10-09T11:16:42;100887.72;;;8.95;100.00
13420;BME280;6781;58.440;15.470;2023-10-09T11:19:10;100887.53;;;8.98;100.00
13420;BME280;6781;58.440;15.470;2023-10-09T11:21:48;100890.31;;;9.21;100.00
13420;BME280;6781;58.440;15.470;2023-10-09T11:24:25;100869.28;;;9.25;100.00
13420;BME280;6781;58.440;15.470;2023-10-09T11:26:51;100851.06;;;9.27;100.00
13420;BME280;6781;58.440;15.470;2023-10-09T11:29:32;100839.97;;;9.37;100.00
13420;BME280;6781;58.440;15.470;2023-10-09T11:32:14;100801.31;;;9.47;100.00
13420;BME280;6781;58.440;15.470;2023-10-09T11:34:43;100740.84;;;9.48;100.00
13420;BME280;6781;58.440;15.470;2023-10-09T11:37:17;100716.50;;;9.51;100.00
13420;BME280;6781;58.440;15.470;2023-10-09T11:39:58;100678.50;;;9.51;100.00
13420;BME280;6781;58.440;15.470;2023-10-09T11:42:26;100666.97;;;9.55;100.00
13420;BME280;6781;58.440;15.470;2023-10-09T11:45:01;100678.19;;;9.67;100.00
13420;BME280;6781;58.440;15.470;2023-10-09T11:47:37;100692.47;;;9.72;100.00
13420;BME280;6781;58.440;15.470;2023-10-09T11:50:19;100647.25;;;9.65;100.00
13420;BME280;6781;58.440;15.470;2023-10-09T11:52:56;100640.19;;;9.67;100.00
13420;BME280;6781;58.440;15.470;2023-10-09T11:55:38;100608.66;;;9.73;100.00
13420;BME280;6781;58.440;15.470;2023-10-09T11:58:05;100605.38;;;9.83;100.00
13420;BME280;6781;58.440;15.470;2023-10-09T12:00:35;100581.56;;;9.77;100.00
13420;BME280;6781;58.440;15.470;2023-10-09T12:03:12;100559.44;;;9.85;100.00
13420;BME280;6781;58.440;15.470;2023-10-09T12:05:39;100505.06;;;9.73;100.00
13420;BME280;6781;58.440;15.470;2023-10-09T12:08:10;100449.50;;;9.66;100.00
13420;BME280;6781;58.440;15.470;2023-10-09T12:10:41;100431.63;;;9.63;100.00
13420;BME280;6781;58.440;15.470;2023-10-09T12:13:08;100442.69;;;9.65;100.00
13420;BME280;6781;58.440;15.470;2023-10-09T12:15:35;100451.63;;;9.61;100.00
13420;BME280;6781;58.440;15.470;2023-10-09T12:18:06;100445.38;;;9.41;100.00
13420;BME280;6781;58.440;15.470;2023-10-09T12:20:40;100456.78;;;9.39;100.00
13420;BME280;6781;58.440;15.470;2023-10-09T12:23:07;100458.09;;;9.33;100.00
13420;BME280;6781;58.440;15.470;2023-10-09T12:25:38;100475.16;;;9.36;100.00
13420;BME280;6781;58.440;15.470;2023-10-09T12:28:06;100461.50;;;9.34;100.00
13420;BME280;6781;58.440;15.470;2023-10-09T12:30:37;100444.22;;;9.34;100.00
13420;BME280;6781;58.440;15.470;2023-10-09T12:33:05;100454.22;;;9.39;100.00
13420;BME280;6781;58.440;15.470;2023-10-09T12:35:36;100484.09;;;9.32;100.00
13420;BME280;6781;58.440;15.470;2023-10-09T12:38:03;100531.38;;;9.34;100.00
13420;BME280;6781;58.440;15.470;2023-10-09T12:40:33;100560.88;;;9.31;100.00
13420;BME280;6781;58.440;15.470;2023-10-09T12:43:01;100578.41;;;9.28;100.00
13420;BME280;6781;58.440;15.470;2023-10-09T12:45:29;100581.94;;;9.27;100.00
13420;BME280;6781;58.440;15.470;2023-10-09T12:47:59;100559.72;;;9.35;100.00
13420;BME280;6781;58.440;15.470;2023-10-09T12:50:28;100531.50;;;9.43;100.00
13420;BME280;6781;58.440;15.470;2023-10-09T12:52:59;100493.94;;;9.27;100.00
13420;BME280;6781;58.440;15.470;2023-10-09T12:55:34;100489.94;;;9.23;100.00
13420;BME280;6781;58.440;15.470;2023-10-09T12:58:01;100466.88;;;9.20;100.00
13420;BME280;6781;58.440;15.470;2023-10-09T13:00:33;100473.03;;;9.30;100.00
13420;BME280;6781;58.440;15.470;2023-10-09T13:03:03;100486.91;;;9.29;100.00
13420;BME280;6781;58.440;15.470;2023-10-09T13:05:42;100508.53;;;9.28;100.00
13420;BME280;6781;58.440;15.470;2023-10-09T13:08:17;100501.00;;;9.25;100.00
13420;BME280;6781;58.440;15.470;2023-10-09T13:10:45;100504.44;;;9.36;100.00
13420;BME280;6781;58.440;15.470;2023-10-09T13:13:12;100465.97;;;9.32;100.00
13420;BME280;6781;58.440;15.470;2023-10-09T13:15:40;100425.97;;;9.36;100.00
13420;BME280;6781;58.440;15.470;2023-10-09T13:18:08;100403.72;;;9.44;100.00
13420;BME280;6781;58.440;15.470;2023-10-09T13:20:35;100431.38;;;9.55;100.00
13420;BME280;6781;58.440;15.470;2023-10-09T13:23:02;100449.97;;;9.38;100.00
13420;BME280;6781;58.440;15.470;2023-10-09T13:25:28;100427.97;;;9.43;100.00
13420;BME280;6781;58.440;15.470;2023-10-09T13:28:04;100432.69;;;9.38;100.00
13420;BME280;6781;58.440;15.470;2023-10-09T13:30:31;100430.78;;;9.29;100.00
13420;BME280;6781;58.440;15.470;2023-10-09T13:33:05;100440.31;;;9.29;100.00
13420;BME280;6781;58.440;15.470;2023-10-09T13:35:32;100461.94;;;9.17;100.00